sensor_id;sensor_type;location;lat;lon;timestamp;pressure;altitude;pressure_sealevel;temperature;humidity
5883;BME280;2967;51.488;6.618;2023-05-25T00:00:17;102198.53;;;12.60;100.00
5883;BME280;2967;51.488;6.618;2023-05-25T00:05:21;102221.63;;;12.75;100.00
5883;BME280;2967;51.488;6.618;2023-05-25T00:10:28;102022.50;;;11.58;100.00
5883;BME280;2967;51.488;6.618;2023-05-25T00:15:32;102171.75;;;12.48;100.00
5883;BME280;2967;51.488;6.618;2023-05-25T00:20:35;102155.50;;;12.37;100.00
5883;BME280;2967;51.488;6.618;2023-05-25T00:25:38;102208.53;;;12.72;100.00
5883;BME280;2967;51.488;6.618;2023-05-25T00:30:42;102207.88;;;12.67;100.00
5883;BME280;2967;51.488;6.618;2023-05-25T00:35:45;102216.94;;;12.63;100.00
5883;BME280;2967;51.488;6.618;2023-05-25T00:40:53;102003.75;;;11.44;100.00
5883;BME280;2967;51.488;6.618;2023-05-25T00:45:58;102052.38;;;11.61;100.00
5883;BME280;2967;51.488;6.618;2023-05-25T00:51:01;101996.69;;;11.26;100.00
5883;BME280;2967;51.488;6.618;2023-05-25T00:56:11;102215.22;;;12.45;100.00
5883;BME280;2967;51.488;6.618;2023-05-25T01:08:30;102230.59;;;12.39;100.00
5883;BME280;2967;51.488;6.618;2023-05-25T01:13:36;102231.25;;;12.25;100.00
5883;BME280;2967;51.488;6.618;2023-05-25T01:18:41;102237.94;;;12.15;100.00
5883;BME280;2967;51.488;6.618;2023-05-25T01:23:51;102240.34;;;12.03;100.00
5883;BME280;2967;51.488;6.618;2023-05-25T01:28:55;102203.66;;;11.75;100.00
5883;BME280;2967;51.488;6.618;2023-05-25T01:33:59;102230.38;;;11.89;100.00
5883;BME280;2967;51.488;6.618;2023-05-25T01:39:04;102229.94;;;11.80;100.00
5883;BME280;2967;51.488;6.618;2023-05-25T01:44:07;102173.44;;;11.41;100.00
5883;BME280;2967;51.488;6.618;2023-05-25T01:49:15;102152.25;;;11.22;100.00
5883;BME280;2967;51.488;6.618;2023-05-25T01:54:27;102250.09;;;11.84;100.00
5883;BME280;2967;51.488;6.618;2023-05-25T01:59:32;102243.84;;;11.85;100.00
5883;BME280;2967;51.488;6.618;2023-05-25T02:04:37;102251.59;;;11.89;100.00
5883;BME280;2967;51.488;6.618;2023-05-25T02:09:42;102246.56;;;11.83;100.00
5883;BME280;2967;51.488;6.618;2023-05-25T02:14:47;102245.13;;;11.76;100.00
5883;BME280;2967;51.488;6.618;2023-05-25T02:19:50;102239.81;;;11.76;100.00
5883;BME280;2967;51.488;6.618;2023-05-25T02:24:55;102137.56;;;11.15;100.00
5883;BME280;2967;51.488;6.618;2023-05-25T02:29:57;102199.25;;;11.37;100.00
5883;BME280;2967;51.488;6.618;2023-05-25T02:35:02;102250.22;;;11.62;100.00
5883;BME280;2967;51.488;6.618;2023-05-25T02:40:07;102172.09;;;11.32;100.00
5883;BME280;2967;51.488;6.618;2023-05-25T02:45:11;102238.53;;;11.66;100.00
5883;BME280;2967;51.488;6.618;2023-05-25T02:50:14;102217.19;;;11.31;100.00
5883;BME280;2967;51.488;6.618;2023-05-25T02:55:21;102181.06;;;11.10;100.00
5883;BME280;2967;51.488;6.618;2023-05-25T03:00:27;102246.91;;;11.57;100.00
5883;BME280;2967;51.488;6.618;2023-05-25T03:05:30;102054.50;;;10.41;100.00
5883;BME280;2967;51.488;6.618;2023-05-25T03:10:37;102250.81;;;11.49;100.00
5883;BME280;2967;51.488;6.618;2023-05-25T03:15:42;102260.41;;;11.51;100.00
5883;BME280;2967;51.488;6.618;2023-05-25T03:20:45;102269.50;;;11.46;100.00
5883;BME280;2967;51.488;6.618;2023-05-25T03:25:49;102162.66;;;10.68;100.00
5883;BME280;2967;51.488;6.618;2023-05-25T03:30:53;102280.91;;;11.28;100.00
5883;BME280;2967;51.488;6.618;2023-05-25T03:35:57;102288.63;;;11.14;100.00
5883;BME280;2967;51.488;6.618;2023-05-25T03:41:02;102293.31;;;11.07;100.00
5883;BME280;2967;51.488;6.618;2023-05-25T03:46:05;102294.41;;;11.02;100.00
5883;BME280;2967;51.488;6.618;2023-05-25T03:51:08;102206.56;;;10.52;100.00
5883;BME280;2967;51.488;6.618;2023-05-25T03:56:12;102248.00;;;10.73;100.00
5883;BME280;2967;51.488;6.618;2023-05-25T04:01:15;102295.75;;;11.12;100.00
5883;BME280;2967;51.488;6.618;2023-05-25T04:06:18;102293.44;;;11.04;100.00
5883;BME280;2967;51.488;6.618;2023-05-25T04:11:25;101906.06;;;8.89;100.00
5883;BME280;2967;51.488;6.618;2023-05-25T04:16:35;102181.38;;;10.44;100.00
5883;BME280;2967;51.488;6.618;2023-05-25T04:21:43;102228.50;;;10.96;100.00
5883;BME280;2967;51.488;6.618;2023-05-25T04:26:48;102315.47;;;11.45;100.00
5883;BME280;2967;51.488;6.618;2023-05-25T04:31:52;102314.91;;;11.38;100.00
5883;BME280;2967;51.488;6.618;2023-05-25T04:37:34;102305.09;;;11.40;100.00
5883;BME280;2967;51.488;6.618;2023-05-25T04:42:53;102332.22;;;11.45;100.00
5883;BME280;2967;51.488;6.618;2023-05-25T04:48:06;102311.63;;;11.32;100.00
5883;BME280;2967;51.488;6.618;2023-05-25T04:53:10;102338.47;;;11.44;100.00
5883;BME280;2967;51.488;6.618;2023-05-25T04:58:15;102353.38;;;11.47;100.00
5883;BME280;2967;51.488;6.618;2023-05-25T05:03:19;102349.44;;;11.55;100.00
5883;BME280;2967;51.488;6.618;2023-05-25T05:08:26;102346.72;;;11.58;100.00
5883;BME280;2967;51.488;6.618;2023-05-25T05:13:34;102354.19;;;11.69;100.00
5883;BME280;2967;51.488;6.618;2023-05-25T05:18:38;102353.50;;;11.84;100.00
5883;BME280;2967;51.488;6.618;2023-05-25T05:23:41;102299.38;;;11.49;100.00
5883;BME280;2967;51.488;6.618;2023-05-25T05:28:47;102363.75;;;12.10;100.00
5883;BME280;2967;51.488;6.618;2023-05-25T05:33:51;102370.56;;;12.15;100.00
5883;BME280;2967;51.488;6.618;2023-05-25T05:38:54;102380.56;;;12.29;100.00
5883;BME280;2967;51.488;6.618;2023-05-25T05:43:58;102277.09;;;11.73;100.00
5883;BME280;2967;51.488;6.618;2023-05-25T05:49:01;102401.09;;;12.44;100.00
5883;BME280;2967;51.488;6.618;2023-05-25T05:54:04;102381.25;;;12.51;100.00
5883;BME280;2967;51.488;6.618;2023-05-25T05:59:09;102349.78;;;12.43;100.00
5883;BME280;2967;51.488;6.618;2023-05-25T06:04:12;102382.03;;;12.71;100.00
5883;BME280;2967;51.488;6.618;2023-05-25T06:09:16;102354.84;;;12.66;100.00
5883;BME280;2967;51.488;6.618;2023-05-25T06:14:20;102404.16;;;13.07;100.00
5883;BME280;2967;51.488;6.618;2023-05-25T06:19:23;102402.44;;;13.06;100.00
5883;BME280;2967;51.488;6.618;2023-05-25T06:24:26;102404.38;;;13.21;100.00
5883;BME280;2967;51.488;6.618;2023-05-25T06:29:30;102367.84;;;13.08;100.00
5883;BME280;2967;51.488;6.618;2023-05-25T06:34:33;102374.03;;;13.25;100.00
5883;BME280;2967;51.488;6.618;2023-05-25T06:39:38;102405.47;;;13.51;100.00
5883;BME280;2967;51.488;6.618;2023-05-25T06:44:45;102427.41;;;13.71;100.00
5883;BME280;2967;51.488;6.618;2023-05-25T06:49:48;102427.72;;;13.82;100.00
5883;BME280;2967;51.488;6.618;2023-05-25T06:54:51;102431.31;;;13.81;100.00
5883;BME280;2967;51.488;6.618;2023-05-25T06:59:55;102432.44;;;13.94;100.00
5883;BME280;2967;51.488;6.618;2023-05-25T07:04:58;102441.66;;;14.04;100.00
5883;BME280;2967;51.488;6.618;2023-05-25T07:10:02;102440.34;;;14.11;100.00
5883;BME280;2967;51.488;6.618;2023-05-25T07:15:08;102440.00;;;14.19;100.00
5883;BME280;2967;51.488;6.618;2023-05-25T07:20:12;102440.34;;;14.28;100.00
5883;BME280;2967;51.488;6.618;2023-05-25T07:25:15;102403.34;;;14.24;100.00
5883;BME280;2967;51.488;6.618;2023-05-25T07:30:19;102436.88;;;14.43;100.00
5883;BME280;2967;51.488;6.618;2023-05-25T07:35:22;102445.53;;;14.62;100.00
5883;BME280;2967;51.488;6.618;2023-05-25T07:40:26;102462.41;;;14.78;100.00
5883;BME280;2967;51.488;6.618;2023-05-25T07:45:31;102450.72;;;14.81;100.00
5883;BME280;2967;51.488;6.618;2023-05-25T07:50:39;102423.84;;;14.70;100.00
5883;BME280;2967;51.488;6.618;2023-05-25T07:55:42;102464.63;;;14.86;100.00
5883;BME280;2967;51.488;6.618;2023-05-25T12:16:15;102474.16;;;17.99;97.06
5883;BME280;2967;51.488;6.618;2023-05-25T12:21:19;102440.06;;;18.01;95.29
5883;BME280;2967;51.488;6.618;2023-05-25T12:26:23;102465.31;;;18.36;95.56
5883;BME280;2967;51.488;6.618;2023-05-25T12:31:30;102460.59;;;18.39;95.88
5883;BME280;2967;51.488;6.618;2023-05-25T12:36:44;102450.97;;;18.73;90.79
5883;BME280;2967;51.488;6.618;2023-05-25T12:41:50;102432.41;;;18.82;88.26
5883;BME280;2967;51.488;6.618;2023-05-25T12:47:10;102439.34;;;19.44;86.41
5883;BME280;2967;51.488;6.618;2023-05-25T12:52:32;102442.25;;;19.64;85.94
5883;BME280;2967;51.488;6.618;2023-05-25T12:57:49;102447.41;;;19.78;86.94
5883;BME280;2967;51.488;6.618;2023-05-25T13:03:24;102448.16;;;19.57;87.55
5883;BME280;2967;51.488;6.618;2023-05-25T13:08:41;102412.53;;;19.55;86.42
5883;BME280;2967;51.488;6.618;2023-05-25T13:14:03;102426.66;;;19.91;85.02
5883;BME280;2967;51.488;6.618;2023-05-25T13:19:08;102415.28;;;19.88;85.07
5883;BME280;2967;51.488;6.618;2023-05-25T13:24:11;102437.31;;;19.93;84.73
5883;BME280;2967;51.488;6.618;2023-05-25T13:29:13;102431.41;;;19.88;84.29
5883;BME280;2967;51.488;6.618;2023-05-25T13:34:17;102432.84;;;19.70;84.08
5883;BME280;2967;51.488;6.618;2023-05-25T13:39:20;102414.53;;;19.75;84.39
5883;BME280;2967;51.488;6.618;2023-05-25T13:44:23;102417.75;;;19.91;86.82
5883;BME280;2967;51.488;6.618;2023-05-25T13:49:27;102385.06;;;20.08;83.18
5883;BME280;2967;51.488;6.618;2023-05-25T13:54:31;102383.31;;;19.96;83.67
5883;BME280;2967;51.488;6.618;2023-05-25T13:59:33;102374.19;;;20.31;82.74
5883;BME280;2967;51.488;6.618;2023-05-25T14:04:37;102405.44;;;21.30;79.78
5883;BME280;2967;51.488;6.618;2023-05-25T14:09:40;102416.66;;;22.07;77.31
5883;BME280;2967;51.488;6.618;2023-05-25T14:14:43;102406.69;;;22.67;75.64
5883;BME280;2967;51.488;6.618;2023-05-25T14:19:47;102407.13;;;23.21;72.02
5883;BME280;2967;51.488;6.618;2023-05-25T14:24:50;102396.34;;;23.21;69.63
5883;BME280;2967;51.488;6.618;2023-05-25T14:29:53;102399.44;;;22.58;72.23
5883;BME280;2967;51.488;6.618;2023-05-25T14:35:00;102398.81;;;22.15;72.90
5883;BME280;2967;51.488;6.618;2023-05-25T14:40:03;102397.66;;;21.67;75.75
5883;BME280;2967;51.488;6.618;2023-05-25T14:45:08;102320.84;;;20.69;75.76
5883;BME280;2967;51.488;6.618;2023-05-25T14:50:24;102386.84;;;20.95;76.01
5883;BME280;2967;51.488;6.618;2023-05-25T14:55:30;102389.91;;;20.91;76.10
5883;BME280;2967;51.488;6.618;2023-05-25T15:00:33;102296.00;;;19.90;77.45
5883;BME280;2967;51.488;6.618;2023-05-25T15:05:40;102348.41;;;19.96;78.52
5883;BME280;2967;51.488;6.618;2023-05-25T15:10:43;102390.84;;;20.25;80.11
5883;BME280;2967;51.488;6.618;2023-05-25T15:15:46;102389.34;;;20.21;79.73
5883;BME280;2967;51.488;6.618;2023-05-25T15:20:50;102371.75;;;19.95;79.70
5883;BME280;2967;51.488;6.618;2023-05-25T15:25:55;102377.31;;;19.81;79.58
5883;BME280;2967;51.488;6.618;2023-05-25T15:31:03;102378.03;;;19.83;80.89
5883;BME280;2967;51.488;6.618;2023-05-25T15:36:09;102380.47;;;19.64;81.01
5883;BME280;2967;51.488;6.618;2023-05-25T15:41:14;102377.88;;;19.52;79.76
5883;BME280;2967;51.488;6.618;2023-05-25T15:46:17;102364.53;;;19.39;83.58
5883;BME280;2967;51.488;6.618;2023-05-25T15:51:22;102276.97;;;18.80;82.45
5883;BME280;2967;51.488;6.618;2023-05-25T15:56:26;102349.38;;;19.04;81.37
5883;BME280;2967;51.488;6.618;2023-05-25T16:01:37;102360.19;;;19.02;81.24
5883;BME280;2967;51.488;6.618;2023-05-25T16:06:50;102286.81;;;18.69;81.39
5883;BME280;2967;51.488;6.618;2023-05-25T16:11:52;102356.47;;;19.16;83.56
5883;BME280;2967;51.488;6.618;2023-05-25T16:16:55;102342.53;;;19.00;86.05
5883;BME280;2967;51.488;6.618;2023-05-25T16:22:02;102343.31;;;19.13;85.62
5883;BME280;2967;51.488;6.618;2023-05-25T16:27:05;102332.66;;;19.00;82.70
5883;BME280;2967;51.488;6.618;2023-05-25T16:32:08;102360.34;;;19.01;83.97
5883;BME280;2967;51.488;6.618;2023-05-25T16:37:12;102348.97;;;18.74;84.27
5883;BME280;2967;51.488;6.618;2023-05-25T16:42:15;102332.84;;;18.63;81.54
5883;BME280;2967;51.488;6.618;2023-05-25T16:47:18;102365.75;;;18.65;82.29
5883;BME280;2967;51.488;6.618;2023-05-25T16:52:23;102334.41;;;18.42;81.93
5883;BME280;2967;51.488;6.618;2023-05-25T16:57:26;102311.09;;;18.19;84.19
5883;BME280;2967;51.488;6.618;2023-05-25T17:02:29;102335.91;;;18.34;82.18
5883;BME280;2967;51.488;6.618;2023-05-25T17:07:34;102345.56;;;18.36;83.10
5883;BME280;2967;51.488;6.618;2023-05-25T17:12:38;102344.50;;;18.39;85.59
5883;BME280;2967;51.488;6.618;2023-05-25T17:17:41;102302.44;;;18.03;85.13
5883;BME280;2967;51.488;6.618;2023-05-25T17:22:45;102307.78;;;18.03;84.17
5883;BME280;2967;51.488;6.618;2023-05-25T17:27:48;102349.84;;;18.26;82.39
5883;BME280;2967;51.488;6.618;2023-05-25T17:32:51;102294.53;;;17.89;83.98
5883;BME280;2967;51.488;6.618;2023-05-25T17:37:56;102333.78;;;18.14;84.16
5883;BME280;2967;51.488;6.618;2023-05-25T17:42:59;102344.50;;;18.14;83.76
5883;BME280;2967;51.488;6.618;2023-05-25T17:48:02;102354.16;;;18.04;86.12
5883;BME280;2967;51.488;6.618;2023-05-25T17:53:06;102352.78;;;17.98;85.85
5883;BME280;2967;51.488;6.618;2023-05-25T17:58:14;102266.38;;;17.46;84.64
5883;BME280;2967;51.488;6.618;2023-05-25T18:03:19;102157.44;;;16.73;85.71
5883;BME280;2967;51.488;6.618;2023-05-25T18:08:44;102348.38;;;17.97;83.75
5883;BME280;2967;51.488;6.618;2023-05-25T18:13:50;102354.28;;;17.90;83.44
5883;BME280;2967;51.488;6.618;2023-05-25T18:18:55;102323.13;;;17.76;84.50
5883;BME280;2967;51.488;6.618;2023-05-25T18:24:09;102236.72;;;16.99;85.40
5883;BME280;2967;51.488;6.618;2023-05-25T18:29:16;102310.72;;;17.50;86.41
5883;BME280;2967;51.488;6.618;2023-05-25T18:34:19;102346.38;;;17.63;86.36
5883;BME280;2967;51.488;6.618;2023-05-25T18:39:23;102347.53;;;17.72;85.63
5883;BME280;2967;51.488;6.618;2023-05-25T18:44:26;102277.06;;;17.21;87.40
5883;BME280;2967;51.488;6.618;2023-05-25T18:49:29;102351.94;;;17.60;86.83
5883;BME280;2967;51.488;6.618;2023-05-25T18:54:36;102346.22;;;17.40;87.16
5883;BME280;2967;51.488;6.618;2023-05-25T18:59:39;102344.47;;;17.26;88.45
5883;BME280;2967;51.488;6.618;2023-05-25T19:04:43;102357.44;;;17.32;86.68
5883;BME280;2967;51.488;6.618;2023-05-25T19:09:47;102359.84;;;17.23;86.92
5883;BME280;2967;51.488;6.618;2023-05-25T19:14:50;102365.94;;;17.12;86.49
5883;BME280;2967;51.488;6.618;2023-05-25T19:19:53;102317.50;;;16.78;87.56
5883;BME280;2967;51.488;6.618;2023-05-25T19:24:58;102344.75;;;16.83;87.71
5883;BME280;2967;51.488;6.618;2023-05-25T19:30:02;102376.88;;;16.95;88.26
5883;BME280;2967;51.488;6.618;2023-05-25T19:35:05;102385.28;;;16.77;89.38
5883;BME280;2967;51.488;6.618;2023-05-25T19:40:09;102346.44;;;16.45;89.53
5883;BME280;2967;51.488;6.618;2023-05-25T19:45:13;102363.50;;;16.42;89.54
5883;BME280;2967;51.488;6.618;2023-05-25T19:50:19;102383.16;;;16.41;90.37
5883;BME280;2967;51.488;6.618;2023-05-25T19:55:29;102401.44;;;16.33;91.35
5883;BME280;2967;51.488;6.618;2023-05-25T20:00:32;102408.22;;;16.25;90.99
5883;BME280;2967;51.488;6.618;2023-05-25T20:05:35;102381.25;;;16.01;91.20
5883;BME280;2967;51.488;6.618;2023-05-25T20:10:39;102411.97;;;16.08;91.09
5883;BME280;2967;51.488;6.618;2023-05-25T20:15:45;102418.69;;;16.00;92.15
5883;BME280;2967;51.488;6.618;2023-05-25T20:20:49;102397.72;;;15.80;92.68
5883;BME280;2967;51.488;6.618;2023-05-25T20:25:53;102382.31;;;15.56;95.62
5883;BME280;2967;51.488;6.618;2023-05-25T20:30:56;102418.50;;;15.75;94.40
5883;BME280;2967;51.488;6.618;2023-05-25T20:35:59;102418.66;;;15.72;94.98
5883;BME280;2967;51.488;6.618;2023-05-25T20:41:03;102419.72;;;15.70;94.28
5883;BME280;2967;51.488;6.618;2023-05-25T20:46:06;102411.66;;;15.56;95.06
5883;BME280;2967;51.488;6.618;2023-05-25T20:51:09;102430.88;;;15.47;96.96
5883;BME280;2967;51.488;6.618;2023-05-25T20:56:14;102452.66;;;15.39;97.12
5883;BME280;2967;51.488;6.618;2023-05-25T21:01:17;102457.06;;;15.40;97.04
5883;BME280;2967;51.488;6.618;2023-05-25T21:06:19;102424.25;;;15.09;97.49
5883;BME280;2967;51.488;6.618;2023-05-25T21:11:24;102465.41;;;15.19;98.16
5883;BME280;2967;51.488;6.618;2023-05-25T21:16:27;102463.78;;;15.16;98.22
5883;BME280;2967;51.488;6.618;2023-05-25T21:21:30;102454.16;;;14.98;99.27
5883;BME280;2967;51.488;6.618;2023-05-25T21:26:35;102476.75;;;14.91;99.36
5883;BME280;2967;51.488;6.618;2023-05-25T21:31:38;102479.59;;;14.88;99.37
5883;BME280;2967;51.488;6.618;2023-05-25T21:36:41;102499.78;;;14.77;100.00
5883;BME280;2967;51.488;6.618;2023-05-25T21:41:48;102482.19;;;14.74;100.00
5883;BME280;2967;51.488;6.618;2023-05-25T21:52:23;102484.28;;;14.52;100.00
5883;BME280;2967;51.488;6.618;2023-05-25T21:57:38;102166.97;;;12.54;100.00
5883;BME280;2967;51.488;6.618;2023-05-25T22:02:43;102503.59;;;14.40;100.00
5883;BME280;2967;51.488;6.618;2023-05-25T22:07:46;102382.69;;;13.62;100.00
5883;BME280;2967;51.488;6.618;2023-05-25T22:12:50;102360.44;;;13.31;100.00
5883;BME280;2967;51.488;6.618;2023-05-25T22:17:56;102470.44;;;13.96;100.00
5883;BME280;2967;51.488;6.618;2023-05-25T22:23:00;102474.13;;;13.94;100.00
5883;BME280;2967;51.488;6.618;2023-05-25T22:28:04;102502.50;;;14.10;100.00
5883;BME280;2967;51.488;6.618;2023-05-25T22:33:07;102514.56;;;14.00;100.00
5883;BME280;2967;51.488;6.618;2023-05-25T22:38:09;102387.94;;;13.13;100.00
5883;BME280;2967;51.488;6.618;2023-05-25T22:43:14;102517.88;;;13.88;100.00
5883;BME280;2967;51.488;6.618;2023-05-25T22:48:17;102476.31;;;13.52;100.00
5883;BME280;2967;51.488;6.618;2023-05-25T22:53:20;102525.75;;;13.73;100.00
5883;BME280;2967;51.488;6.618;2023-05-25T22:58:24;102455.00;;;13.18;100.00
5883;BME280;2967;51.488;6.618;2023-05-25T23:03:45;102493.16;;;13.34;100.00
5883;BME280;2967;51.488;6.618;2023-05-25T23:08:48;102532.88;;;13.55;100.00
5883;BME280;2967;51.488;6.618;2023-05-25T23:13:52;102531.22;;;13.53;100.00
5883;BME280;2967;51.488;6.618;2023-05-25T23:18:56;102424.72;;;12.85;100.00
5883;BME280;2967;51.488;6.618;2023-05-25T23:24:00;102534.81;;;13.52;100.00
5883;BME280;2967;51.488;6.618;2023-05-25T23:29:04;102538.63;;;13.46;100.00
5883;BME280;2967;51.488;6.618;2023-05-25T23:34:07;102459.25;;;12.85;100.00
5883;BME280;2967;51.488;6.618;2023-05-25T23:39:11;102258.91;;;11.66;100.00
5883;BME280;2967;51.488;6.618;2023-05-25T23:44:15;102338.84;;;12.14;100.00
5883;BME280;2967;51.488;6.618;2023-05-25T23:49:18;102488.00;;;12.96;100.00
5883;BME280;2967;51.488;6.618;2023-05-25T23:54:21;102507.09;;;13.04;100.00
5883;BME280;2967;51.488;6.618;2023-05-25T23:59:25;102544.56;;;13.16;100.00
